createdAt,value
2023-03-22T00:02:01.963Z,96664.41
2023-03-22T00:05:06.938Z,96667.22
2023-03-22T00:08:13.495Z,96693.13
2023-03-22T00:11:20.135Z,96678.41
2023-03-22T00:14:24.624Z,96700.69
2023-03-22T00:17:30.539Z,96701.78
2023-03-22T00:20:38.217Z,96674.13
2023-03-22T00:23:43.828Z,96680.16
2023-03-22T00:26:48.424Z,96709.97
2023-03-22T00:29:52.956Z,96709.22
2023-03-22T00:32:57.449Z,96692.66
2023-03-22T00:36:06.224Z,96702.13
2023-03-22T00:39:10.831Z,96697.13
2023-03-22T00:42:15.410Z,96676.53
2023-03-22T00:45:20.027Z,96686.84
2023-03-22T00:48:24.690Z,96655.16
2023-03-22T00:51:29.319Z,96653.06
2023-03-22T00:54:33.969Z,96668.63
2023-03-22T00:57:39.290Z,96668.97
2023-03-22T01:00:45.193Z,96650.53
2023-03-22T01:03:50.744Z,96648.88
2023-03-22T01:06:59.286Z,96666.66
2023-03-22T01:10:06.114Z,96635.34
2023-03-22T01:13:11.659Z,96660.72
2023-03-22T01:16:17.988Z,96638.84
2023-03-22T01:19:27.366Z,96641.97
2023-03-22T01:22:31.910Z,96637.75
2023-03-22T01:25:36.934Z,96615.03
2023-03-22T01:28:41.565Z,96647.09
2023-03-22T01:31:46.075Z,96628.66
2023-03-22T01:34:52.199Z,96632.44
2023-03-22T01:37:57.824Z,96639.66
2023-03-22T01:41:03.098Z,96625.97
2023-03-22T01:44:13.611Z,96642.34
2023-03-22T01:47:18.168Z,96642.69
2023-03-22T01:50:24.449Z,96622.22
2023-03-22T01:53:32.594Z,96613.75
2023-03-22T01:56:40.623Z,96598.56
2023-03-22T01:59:50.299Z,96645.59
2023-03-22T02:03:25.480Z,96612.34
2023-03-22T02:06:32.448Z,96629.38
2023-03-22T02:09:46.601Z,96619.00
2023-03-22T02:13:29.388Z,96657.34
2023-03-22T02:16:59.632Z,96660.13
2023-03-22T02:20:24.115Z,96655.44
2023-03-22T02:23:45.570Z,96624.44
2023-03-22T02:27:22.475Z,96638.69
2023-03-22T02:30:45.710Z,96638.44
2023-03-22T02:34:17.579Z,96643.44
2023-03-22T02:37:24.985Z,96638.59
2023-03-22T02:40:38.954Z,96635.56
2023-03-22T02:43:56.573Z,96645.78
2023-03-22T02:47:25.331Z,96622.34
2023-03-22T02:50:44.904Z,96634.97
2023-03-22T02:53:58.748Z,96630.72
2023-03-22T02:57:09.956Z,96643.44
2023-03-22T03:00:18.361Z,96636.03
2023-03-22T03:03:29.232Z,96644.94
2023-03-22T03:06:39.829Z,96619.22
2023-03-22T03:09:44.988Z,96620.69
2023-03-22T03:12:50.543Z,96624.38
2023-03-22T03:15:59.191Z,96632.13
2023-03-22T03:19:14.966Z,96636.66
2023-03-22T03:22:44.432Z,96629.88
2023-03-22T03:26:08.262Z,96595.94
2023-03-22T03:29:17.677Z,96617.47
2023-03-22T03:32:35.250Z,96602.34
2023-03-22T03:35:51.837Z,96623.44
2023-03-22T03:38:58.286Z,96597.88
2023-03-22T03:42:06.642Z,96593.63
2023-03-22T03:45:11.910Z,96618.72
2023-03-22T03:48:21.293Z,96635.53
2023-03-22T03:51:27.859Z,96636.53
2023-03-22T03:54:32.892Z,96628.59
2023-03-22T03:57:37.991Z,96634.31
2023-03-22T04:00:43.598Z,96638.28
2023-03-22T04:03:55.441Z,96621.91
2023-03-22T04:07:13.494Z,96614.00
2023-03-22T04:10:18.378Z,96636.88
2023-03-22T04:13:24.727Z,96612.44
2023-03-22T04:16:31.487Z,96628.25
2023-03-22T04:19:36.313Z,96625.16
2023-03-22T04:22:41.818Z,96616.13
2023-03-22T04:25:50.112Z,96629.59
2023-03-22T04:29:05.212Z,96624.84
2023-03-22T04:32:11.125Z,96606.44
2023-03-22T04:35:19.395Z,96596.06
2023-03-22T04:38:25.252Z,96612.53
2023-03-22T04:41:32.787Z,96623.94
2023-03-22T04:44:37.846Z,96607.25
2023-03-22T04:47:43.094Z,96588.72
2023-03-22T04:50:49.239Z,96615.56
2023-03-22T04:53:54.568Z,96597.84
2023-03-22T04:56:59.475Z,96585.66
2023-03-22T05:00:08.527Z,96593.44
2023-03-22T05:03:13.457Z,96629.97
2023-03-22T05:06:21.619Z,96628.13
2023-03-22T05:09:34.491Z,96614.22
2023-03-22T05:12:39.950Z,96626.94
2023-03-22T05:16:08.733Z,96606.38
2023-03-22T05:19:24.350Z,96642.84
2023-03-22T05:22:29.827Z,96641.03
2023-03-22T05:25:37.098Z,96643.75
2023-03-22T05:28:43.738Z,96650.16
2023-03-22T05:31:57.264Z,96626.41
2023-03-22T05:35:04.967Z,96623.47
2023-03-22T05:38:14.658Z,96618.31
2023-03-22T05:41:24.150Z,96628.03
2023-03-22T05:44:28.949Z,96644.38
2023-03-22T05:47:44.198Z,96652.38
2023-03-22T05:50:52.611Z,96620.56
2023-03-22T05:53:57.308Z,96641.69
2023-03-22T05:57:07.545Z,96642.47
2023-03-22T06:00:15.051Z,96632.34
2023-03-22T06:03:36.483Z,96666.47
2023-03-22T06:06:49.142Z,96635.44
2023-03-22T06:10:12.683Z,96654.78
2023-03-22T06:13:21.435Z,96654.50
2023-03-22T06:16:27.490Z,96626.69
2023-03-22T06:19:32.216Z,96648.56
2023-03-22T06:22:39.644Z,96627.19
2023-03-22T06:25:44.737Z,96652.66
2023-03-22T06:28:49.383Z,96655.69
2023-03-22T06:31:54.354Z,96665.31
2023-03-22T06:34:58.932Z,96653.09
2023-03-22T06:38:03.575Z,96665.16
2023-03-22T06:41:08.260Z,96660.63
2023-03-22T06:44:13.204Z,96651.34
2023-03-22T06:47:37.730Z,96636.91
2023-03-22T06:50:51.897Z,96635.56
2023-03-22T06:54:03.187Z,96652.47
2023-03-22T06:57:07.944Z,96621.75
2023-03-22T07:00:15.314Z,96657.63
2023-03-22T07:03:19.908Z,96644.44
2023-03-22T07:06:32.193Z,96624.38
2023-03-22T07:09:37.330Z,96627.38
2023-03-22T07:12:42.167Z,96660.59
2023-03-22T07:15:56.485Z,96633.56
2023-03-22T07:19:21.510Z,96657.31
2023-03-22T07:22:27.196Z,96635.84
2023-03-22T07:25:32.203Z,96642.63
2023-03-22T07:28:51.651Z,96657.25
2023-03-22T07:31:58.777Z,96658.38
2023-03-22T07:35:09.188Z,96658.59
2023-03-22T07:38:13.986Z,96662.81
2023-03-22T07:41:19.182Z,96649.94
2023-03-22T07:44:33.766Z,96633.66
2023-03-22T07:47:53.691Z,96649.50
2023-03-22T07:51:27.303Z,96657.09
2023-03-22T07:54:34.447Z,96649.88
2023-03-22T07:57:41.438Z,96652.19
2023-03-22T08:00:49.417Z,96647.25
2023-03-22T08:04:14.210Z,96650.59
2023-03-22T08:07:26.476Z,96638.09
2023-03-22T08:10:33.087Z,96637.88
2023-03-22T08:13:39.411Z,96649.34
2023-03-22T08:16:47.059Z,96644.78
2023-03-22T08:19:54.635Z,96621.00
2023-03-22T08:23:04.531Z,96643.50
2023-03-22T08:26:27.912Z,96641.53
2023-03-22T08:29:35.864Z,96627.03
2023-03-22T08:32:40.587Z,96608.81
2023-03-22T08:35:46.486Z,96636.13
2023-03-22T08:38:51.635Z,96646.94
2023-03-22T08:42:00.866Z,96615.41
2023-03-22T08:45:08.317Z,96640.81
2023-03-22T08:48:14.680Z,96632.06
2023-03-22T08:51:36.938Z,96645.38
2023-03-22T08:55:01.918Z,96622.44
2023-03-22T08:58:29.380Z,96606.81
2023-03-22T09:01:52.057Z,96617.97
2023-03-22T09:04:57.412Z,96614.34
2023-03-22T09:08:06.282Z,96601.31
2023-03-22T09:11:19.686Z,96608.78
2023-03-22T09:14:25.541Z,96616.50
2023-03-22T09:17:31.000Z,96601.00
2023-03-22T09:20:35.687Z,96612.03
2023-03-22T09:23:42.429Z,96621.00
2023-03-22T09:26:49.443Z,96604.50
2023-03-22T09:29:55.997Z,96624.09
2023-03-22T09:33:01.488Z,96598.28
2023-03-22T09:36:06.689Z,96590.84
2023-03-22T09:39:11.595Z,96593.72
2023-03-22T09:42:31.072Z,96609.84
2023-03-22T09:45:42.910Z,96579.50
2023-03-22T09:48:49.457Z,96619.34
2023-03-22T09:51:54.907Z,96608.25
2023-03-22T09:54:59.531Z,96600.81
2023-03-22T09:58:32.759Z,96605.78
2023-03-22T10:02:02.543Z,96596.53
2023-03-22T10:05:32.764Z,96596.25
2023-03-22T10:09:00.376Z,96586.16
2023-03-22T10:12:23.256Z,96589.34
2023-03-22T10:15:33.542Z,96575.53
2023-03-22T10:18:43.475Z,96584.41
2023-03-22T10:21:51.742Z,96554.28
2023-03-22T10:24:58.489Z,96579.44
2023-03-22T10:28:14.196Z,96566.72
2023-03-22T10:31:21.214Z,96568.94
2023-03-22T10:34:31.169Z,96569.31
2023-03-22T10:37:37.499Z,96569.44
2023-03-22T10:40:42.932Z,96562.09
2023-03-22T10:43:53.042Z,96560.59
2023-03-22T10:47:07.213Z,96542.84
2023-03-22T10:50:34.352Z,96547.31
2023-03-22T10:53:47.782Z,96550.28
2023-03-22T10:56:52.343Z,96531.66
2023-03-22T10:59:58.123Z,96533.69
2023-03-22T11:03:02.673Z,96536.81
2023-03-22T11:06:18.569Z,96529.00
2023-03-22T11:09:24.551Z,96527.44
2023-03-22T11:12:29.335Z,96523.53
2023-03-22T11:15:36.568Z,96522.81
2023-03-22T11:18:41.592Z,96498.66
2023-03-22T11:21:46.208Z,96512.31
2023-03-22T11:24:51.891Z,96513.44
2023-03-22T11:28:23.075Z,96501.94
2023-03-22T11:31:27.798Z,96489.50
2023-03-22T11:34:32.456Z,96503.84
2023-03-22T11:37:51.875Z,96493.31
2023-03-22T11:41:02.042Z,96491.28
2023-03-22T11:44:12.373Z,96498.56
2023-03-22T11:47:17.052Z,96480.34
2023-03-22T11:50:28.998Z,96492.38
2023-03-22T11:53:37.216Z,96491.03
2023-03-22T11:56:45.549Z,96492.38
2023-03-22T12:00:11.607Z,96486.16
2023-03-22T12:03:20.349Z,96463.31
2023-03-22T12:06:29.458Z,96468.81
2023-03-22T12:09:43.386Z,96458.13
2023-03-22T12:12:56.005Z,96478.22
2023-03-22T12:16:05.093Z,96465.81
2023-03-22T12:19:32.380Z,96470.81
2023-03-22T12:22:45.672Z,96454.38
2023-03-22T12:25:52.694Z,96460.72
2023-03-22T12:29:05.277Z,96426.56
2023-03-22T12:32:19.240Z,96458.66
2023-03-22T12:35:31.308Z,96437.72
2023-03-22T12:38:46.170Z,96430.66
2023-03-22T12:41:53.870Z,96441.31
2023-03-22T12:45:05.612Z,96437.03
2023-03-22T12:48:20.822Z,96433.69
2023-03-22T12:51:25.722Z,96434.97
2023-03-22T12:54:30.880Z,96428.13
2023-03-22T12:57:35.594Z,96410.47
2023-03-22T13:00:58.315Z,96417.63
2023-03-22T13:04:32.597Z,96408.44
2023-03-22T13:07:52.354Z,96406.06
2023-03-22T13:10:57.355Z,96390.81
2023-03-22T13:14:02.208Z,96406.59
2023-03-22T13:17:07.625Z,96385.88
2023-03-22T13:20:12.249Z,96395.31
2023-03-22T13:23:26.987Z,96384.91
2023-03-22T13:26:49.788Z,96377.38
2023-03-22T13:29:57.821Z,96371.34
2023-03-22T13:33:15.112Z,96377.75
2023-03-22T13:36:25.900Z,96373.13
2023-03-22T13:39:36.349Z,96364.72
2023-03-22T13:42:41.552Z,96370.00
2023-03-22T13:46:07.987Z,96370.16
2023-03-22T13:49:42.313Z,96369.13
2023-03-22T13:53:01.803Z,96347.00
2023-03-22T13:56:08.327Z,96354.75
2023-03-22T13:59:27.955Z,96346.88
2023-03-22T14:02:36.614Z,96343.56
2023-03-22T14:05:44.242Z,96346.56
2023-03-22T14:08:53.288Z,96335.84
2023-03-22T14:12:09.708Z,96347.16
2023-03-22T14:15:18.856Z,96329.66
2023-03-22T14:18:28.144Z,96331.09
2023-03-22T14:21:44.229Z,96332.03
